Portada
METAR-TAF:

METAR-TAF

Aeroports :

Guwahati, Índia

latitud: 26-06-22N, longitud: 091-35-09E, altitud: 49 m

Observació

L'informe es va fer fa 33 minuts, a les 14:30 UTC
Vent 3 kt del Nord-Est
Temperatura 25°C
Humitat 79%
Pressió 1008 hPa
Visibilitat: 3500 m
Escasses núvols a una alçada de 1800 ft
Núvols disperses a una alçada de 10000 ft
boirina

METAR: VEGT 221430Z 05003KT 3500 BR FEW018 SCT100 25/21 Q1008 NOSIG

Hora: 20:33 (15:03 UTC)

Pronòstic

L'informe es va fer fa 1 hora i 3 minuts, a les 14:00 UTC
Pronòstic vàlid del 22 a les 15 UTC al 22 a les 24 UTC
Vent 4 kt del Nord-Est
Visibilitat: 3000 m
Escasses núvols a una alçada de 2000 ft
Núvols disperses a una alçada de 10000 ft
boirina

TAF: VEGT 221400Z 2215/2224 05004KT 3000 BR FEW020 SCT100

Observacions i pronòstics meteorològics de més de 4000 aeroports (METAR i TAF).

Les estacions disponibles són els punts grocs i vermells al mapa.

Posi el ratolí al punt desitjat per veure el nom de l'estació.

Feu clic per veure les observacions i els pronòstics meteorològics.

Per canviar el mapa: feu clic els botons verds amb una creu de color negre per apropar; al botó verd amb un guió per allunyar la imatge; o en les fletxes verdes per a mapes adjacents.


METAR-TAF: